createdAt,value
2022-09-12T00:00:52.248Z,98521.13
2022-09-12T00:03:19.173Z,98516.09
2022-09-12T00:05:47.454Z,98511.59
2022-09-12T00:08:15.065Z,98514.66
2022-09-12T00:10:43.913Z,98508.16
2022-09-12T00:13:11.559Z,98505.53
2022-09-12T00:15:43.608Z,98504.38
2022-09-12T00:18:16.092Z,98518.22
2022-09-12T00:20:45.629Z,98510.50
2022-09-12T00:23:13.802Z,98502.09
2022-09-12T00:25:46.074Z,98496.44
2022-09-12T00:28:16.525Z,98505.00
2022-09-12T00:30:45.437Z,98502.50
2022-09-12T00:33:13.680Z,98502.88
2022-09-12T00:35:49.599Z,98504.38
2022-09-12T00:38:17.386Z,98502.91
2022-09-12T00:40:45.270Z,98506.03
2022-09-12T00:43:30.553Z,98511.66
2022-09-12T00:46:01.973Z,98506.84
2022-09-12T00:49:14.439Z,98506.22
2022-09-12T00:51:48.290Z,98507.19
2022-09-12T00:54:21.046Z,98496.63
2022-09-12T00:56:50.336Z,98489.63
2022-09-12T00:59:28.718Z,98497.69
2022-09-12T01:01:56.640Z,98482.31
2022-09-12T01:04:27.149Z,98491.16
2022-09-12T01:06:57.213Z,98483.06
2022-09-12T01:09:25.702Z,98485.91
2022-09-12T01:11:53.608Z,98486.47
2022-09-12T01:14:21.357Z,98486.13
2022-09-12T01:16:50.077Z,98476.63
2022-09-12T01:19:41.881Z,98462.47
2022-09-12T01:22:49.910Z,98450.09
2022-09-12T01:25:38.663Z,98454.88
2022-09-12T01:28:29.513Z,98443.94
2022-09-12T01:31:42.757Z,98439.97
2022-09-12T01:34:28.140Z,98441.44
2022-09-12T01:37:29.347Z,98443.38
2022-09-12T01:40:22.106Z,98440.56
2022-09-12T01:43:19.992Z,98441.31
2022-09-12T01:46:14.567Z,98442.19
2022-09-12T01:49:02.185Z,98445.88
2022-09-12T01:51:38.874Z,98454.72
2022-09-12T01:54:14.162Z,98454.88
2022-09-12T01:56:43.087Z,98450.56
2022-09-12T01:59:20.470Z,98453.63
2022-09-12T02:02:07.333Z,98449.34
2022-09-12T02:04:43.725Z,98449.53
2022-09-12T02:07:37.359Z,98451.97
2022-09-12T02:10:20.611Z,98446.25
2022-09-12T02:12:56.655Z,98447.44
2022-09-12T02:15:38.608Z,98450.06
2022-09-12T02:18:06.914Z,98456.34
2022-09-12T02:20:48.869Z,98444.34
2022-09-12T02:23:23.948Z,98447.31
2022-09-12T02:26:02.258Z,98442.47
2022-09-12T02:28:35.343Z,98439.00
2022-09-12T02:31:32.676Z,98436.28
2022-09-12T02:34:30.990Z,98439.06
2022-09-12T02:37:18.343Z,98415.41
2022-09-12T02:39:45.726Z,98417.13
2022-09-12T02:42:13.455Z,98416.16
2022-09-12T02:44:41.065Z,98420.28
2022-09-12T02:47:31.126Z,98416.66
2022-09-12T02:49:59.354Z,98413.00
2022-09-12T02:52:28.826Z,98412.00
2022-09-12T02:54:57.684Z,98408.00
2022-09-12T02:57:25.253Z,98402.22
2022-09-12T02:59:57.282Z,98413.31
2022-09-12T03:03:04.765Z,98397.44
2022-09-12T03:05:56.429Z,98405.91
2022-09-12T03:08:46.858Z,98403.22
2022-09-12T03:11:41.588Z,98399.16
2022-09-12T03:14:41.993Z,98397.75
2022-09-12T03:17:27.497Z,98398.91
2022-09-12T03:20:10.868Z,98402.72
2022-09-12T03:22:53.717Z,98399.91
2022-09-12T03:25:50.034Z,98406.97
2022-09-12T03:28:19.876Z,98410.19
2022-09-12T03:30:48.973Z,98403.38
2022-09-12T03:33:23.199Z,98402.84
2022-09-12T03:35:50.943Z,98398.63
2022-09-12T03:38:18.650Z,98406.03
2022-09-12T03:40:47.784Z,98406.41
2022-09-12T03:43:16.246Z,98399.84
2022-09-12T03:45:43.236Z,98407.56
2022-09-12T03:48:10.235Z,98414.34
2022-09-12T03:50:37.235Z,98412.41
2022-09-12T03:53:04.417Z,98412.28
2022-09-12T03:55:31.320Z,98418.13
2022-09-12T03:57:58.219Z,98413.50
2022-09-12T04:00:25.211Z,98419.59
2022-09-12T04:02:58.840Z,98426.94
2022-09-12T04:05:26.359Z,98414.00
2022-09-12T04:07:53.329Z,98413.16
2022-09-12T04:10:20.300Z,98421.19
2022-09-12T04:12:47.584Z,98418.69
2022-09-12T04:15:14.602Z,98414.47
2022-09-12T04:17:41.560Z,98411.25
2022-09-12T04:20:09.121Z,98414.97
2022-09-12T04:22:36.224Z,98419.06
2022-09-12T04:25:03.357Z,98414.34
2022-09-12T04:27:30.885Z,98414.66
2022-09-12T04:29:58.473Z,98405.50
2022-09-12T04:32:25.417Z,98405.50
2022-09-12T04:34:52.545Z,98405.41
2022-09-12T04:37:19.547Z,98407.97
2022-09-12T04:39:49.086Z,98407.84
2022-09-12T04:42:16.627Z,98404.56
2022-09-12T04:44:43.812Z,98404.88
2022-09-12T04:47:10.864Z,98409.19
2022-09-12T04:49:37.769Z,98397.50
2022-09-12T04:52:04.781Z,98396.59
2022-09-12T04:54:31.856Z,98390.34
2022-09-12T04:56:59.549Z,98393.97
2022-09-12T04:59:26.866Z,98397.47
2022-09-12T05:01:54.201Z,98402.78
2022-09-12T05:04:21.523Z,98413.22
2022-09-12T05:06:48.612Z,98409.84
2022-09-12T05:09:16.434Z,98404.88
2022-09-12T05:14:33.803Z,98400.25
2022-09-12T05:17:01.977Z,98401.94
2022-09-12T05:19:31.027Z,98401.72
2022-09-12T05:21:58.952Z,98409.06
2022-09-12T05:24:26.171Z,98412.31
2022-09-12T05:26:53.393Z,98405.06
2022-09-12T05:29:20.318Z,98405.13
2022-09-12T05:31:50.084Z,98412.03
2022-09-12T05:34:17.044Z,98422.38
2022-09-12T05:36:43.999Z,98422.31
2022-09-12T05:39:11.368Z,98421.13
2022-09-12T05:41:38.729Z,98427.13
2022-09-12T05:44:07.256Z,98433.78
2022-09-12T05:46:40.206Z,98430.91
2022-09-12T05:49:09.990Z,98431.78
2022-09-12T05:51:39.701Z,98420.53
2022-09-12T05:54:08.159Z,98425.66
2022-09-12T05:56:39.326Z,98426.78
2022-09-12T05:59:28.422Z,98441.06
2022-09-12T06:01:55.466Z,98440.38
2022-09-12T06:04:23.754Z,98431.50
2022-09-12T06:06:51.889Z,98429.88
2022-09-12T06:09:18.831Z,98424.56
2022-09-12T06:11:46.668Z,98425.00
2022-09-12T06:14:16.948Z,98424.09
2022-09-12T06:16:44.696Z,98421.69
2022-09-12T06:19:23.160Z,98417.63
2022-09-12T06:21:51.465Z,98420.03
2022-09-12T06:24:20.202Z,98411.38
2022-09-12T06:26:48.951Z,98404.66
2022-09-12T06:29:16.651Z,98398.19
2022-09-12T06:31:44.287Z,98390.81
2022-09-12T06:34:14.061Z,98398.16
2022-09-12T06:36:44.438Z,98392.03
2022-09-12T06:39:14.462Z,98387.28
2022-09-12T06:41:44.279Z,98388.88
2022-09-12T06:44:21.584Z,98389.06
2022-09-12T06:46:49.750Z,98389.13
2022-09-12T06:49:17.728Z,98387.53
2022-09-12T06:51:44.852Z,98390.50
2022-09-12T06:54:17.056Z,98385.81
2022-09-12T06:56:44.845Z,98390.91
2022-09-12T06:59:11.988Z,98389.84
2022-09-12T07:01:40.118Z,98396.50
2022-09-12T07:04:07.458Z,98401.69
2022-09-12T07:06:41.306Z,98398.34
2022-09-12T07:09:13.505Z,98394.00
2022-09-12T07:11:42.259Z,98392.50
2022-09-12T07:14:13.750Z,98397.94
2022-09-12T07:16:41.300Z,98393.09
2022-09-12T07:19:09.034Z,98386.69
2022-09-12T07:21:39.849Z,98387.09
2022-09-12T07:24:09.545Z,98382.41
2022-09-12T07:26:37.384Z,98384.88
2022-09-12T07:29:32.282Z,98379.16
2022-09-12T07:31:52.505Z,98387.06
2022-09-12T07:34:19.825Z,98385.50
2022-09-12T07:36:47.089Z,98381.72
2022-09-12T07:39:14.391Z,98386.63
2022-09-12T07:41:41.854Z,98377.31
2022-09-12T07:44:09.223Z,98366.69
2022-09-12T07:46:36.609Z,98372.00
2022-09-12T07:49:04.217Z,98381.72
2022-09-12T07:51:31.975Z,98380.38
2022-09-12T07:53:59.402Z,98375.38
2022-09-12T07:56:30.646Z,98376.22
2022-09-12T07:58:58.880Z,98370.75
2022-09-12T08:01:26.769Z,98379.16
2022-09-12T08:03:58.581Z,98377.00
2022-09-12T08:06:27.751Z,98375.56
2022-09-12T08:08:56.868Z,98375.41
2022-09-12T08:11:25.995Z,98373.81
2022-09-12T08:13:57.054Z,98377.31
2022-09-12T08:16:26.960Z,98374.00
2022-09-12T08:18:54.330Z,98383.00
2022-09-12T08:21:23.780Z,98384.16
2022-09-12T08:23:56.197Z,98373.84
2022-09-12T08:26:24.590Z,98375.81
2022-09-12T08:28:53.178Z,98368.28
2022-09-12T08:31:22.394Z,98369.00
2022-09-12T08:33:50.214Z,98363.91
2022-09-12T08:36:23.970Z,98359.47
2022-09-12T08:38:59.289Z,98363.47
2022-09-12T08:41:38.291Z,98363.84
2022-09-12T08:44:26.907Z,98363.22
2022-09-12T08:47:27.556Z,98374.97
2022-09-12T08:50:09.615Z,98356.50
2022-09-12T08:53:03.604Z,98352.47
2022-09-12T08:55:59.276Z,98366.50
2022-09-12T08:58:29.046Z,98361.38
2022-09-12T09:01:22.362Z,98355.41
2022-09-12T09:04:25.756Z,98353.50
2022-09-12T09:07:28.889Z,98360.56
2022-09-12T09:10:09.170Z,98350.63
2022-09-12T09:13:38.255Z,98349.50
2022-09-12T09:16:26.127Z,98355.06
2022-09-12T09:18:54.788Z,98353.75
2022-09-12T09:21:26.668Z,98352.50
2022-09-12T09:24:02.866Z,98351.50
2022-09-12T09:27:03.088Z,98351.41
2022-09-12T09:29:42.385Z,98345.69
2022-09-12T09:32:27.044Z,98344.19
2022-09-12T09:34:54.262Z,98339.88
2022-09-12T09:37:36.439Z,98336.44
2022-09-12T09:40:35.705Z,98339.09
2022-09-12T09:43:23.744Z,98330.69
2022-09-12T09:45:52.994Z,98323.84
2022-09-12T09:48:30.947Z,98319.63
2022-09-12T09:51:03.584Z,98327.38
2022-09-12T09:53:56.328Z,98321.59
2022-09-12T09:56:40.249Z,98330.88
2022-09-12T09:59:17.753Z,98335.13
2022-09-12T10:01:59.987Z,98327.56
2022-09-12T10:04:41.556Z,98323.09
2022-09-12T10:07:21.662Z,98344.06
2022-09-12T10:10:25.210Z,98325.75
2022-09-12T10:13:16.646Z,98322.53
2022-09-12T10:15:58.825Z,98324.50
2022-09-12T10:18:42.777Z,98330.00
2022-09-12T10:21:29.505Z,98323.50
2022-09-12T10:24:48.698Z,98328.84
2022-09-12T10:27:20.653Z,98326.56
2022-09-12T10:29:54.570Z,98314.78
2022-09-12T10:32:36.247Z,98314.00
2022-09-12T10:35:25.474Z,98318.78
2022-09-12T10:37:55.884Z,98315.94
2022-09-12T10:40:31.583Z,98321.34
2022-09-12T10:43:04.388Z,98313.56
2022-09-12T10:45:35.891Z,98316.13
2022-09-12T10:48:22.761Z,98319.22
2022-09-12T10:50:49.632Z,98305.16
2022-09-12T10:53:22.364Z,98312.59
2022-09-12T10:56:07.391Z,98309.25
2022-09-12T10:59:19.802Z,98307.09
2022-09-12T11:01:53.150Z,98312.63
2022-09-12T11:04:48.365Z,98299.06
2022-09-12T11:07:38.246Z,98295.56
2022-09-12T11:10:35.734Z,98294.41
2022-09-12T11:13:32.630Z,98280.53
2022-09-12T11:16:32.317Z,98274.25
2022-09-12T11:19:38.411Z,98279.00
2022-09-12T11:22:31.738Z,98290.13
2022-09-12T11:25:10.746Z,98282.47
2022-09-12T11:27:50.035Z,98281.59
2022-09-12T11:30:18.792Z,98275.91
2022-09-12T11:33:12.580Z,98277.47
2022-09-12T11:35:51.886Z,98274.50
2022-09-12T11:38:38.034Z,98273.03
2022-09-12T11:41:07.933Z,98259.28
2022-09-12T11:43:35.217Z,98261.09
2022-09-12T11:46:22.887Z,98248.41
2022-09-12T11:48:55.588Z,98257.06
2022-09-12T11:51:53.300Z,98251.66
2022-09-12T11:54:53.731Z,98257.28
2022-09-12T11:57:33.880Z,98244.75
2022-09-12T12:00:10.818Z,98249.03
2022-09-12T12:02:44.538Z,98249.94
2022-09-12T12:05:20.644Z,98241.13
2022-09-12T12:08:01.037Z,98244.81
2022-09-12T12:10:50.430Z,98239.41
2022-09-12T12:13:25.478Z,98225.78
2022-09-12T12:15:59.265Z,98226.84
2022-09-12T12:18:32.629Z,98220.78
2022-09-12T12:21:40.200Z,98220.81
2022-09-12T12:24:10.101Z,98224.41
2022-09-12T12:26:39.775Z,98206.25
2022-09-12T12:29:18.443Z,98207.44
2022-09-12T12:32:03.459Z,98213.03
2022-09-12T12:34:41.838Z,98206.44
2022-09-12T12:37:23.334Z,98206.88
2022-09-12T12:39:51.101Z,98193.78
2022-09-12T12:42:33.866Z,98199.41
2022-09-12T12:45:09.567Z,98196.03
2022-09-12T12:47:36.400Z,98198.81
2022-09-12T12:50:08.513Z,98197.34
2022-09-12T12:52:57.086Z,98194.91
2022-09-12T12:55:31.216Z,98192.34
2022-09-12T12:58:03.663Z,98189.53
2022-09-12T13:00:40.240Z,98198.13
2022-09-12T13:03:07.065Z,98190.22
2022-09-12T13:05:46.470Z,98179.00
2022-09-12T13:08:19.845Z,98182.34
2022-09-12T13:10:58.350Z,98185.06
2022-09-12T13:13:30.985Z,98175.25
2022-09-12T13:15:58.700Z,98172.84
2022-09-12T13:18:44.645Z,98168.44
2022-09-12T13:21:21.550Z,98171.72
2022-09-12T13:24:04.730Z,98177.78
2022-09-12T13:26:43.856Z,98173.03
2022-09-12T13:29:22.377Z,98173.38
2022-09-12T13:31:57.115Z,98169.94
2022-09-12T13:34:36.286Z,98165.22
2022-09-12T13:37:34.270Z,98155.34
2022-09-12T13:40:17.533Z,98160.91
2022-09-12T13:43:12.020Z,98146.97
2022-09-12T13:45:39.715Z,98157.97
2022-09-12T13:48:16.785Z,98152.31
2022-09-12T13:51:03.115Z,98144.00
2022-09-12T13:53:45.014Z,98142.75
2022-09-12T13:56:18.482Z,98150.78
2022-09-12T13:58:57.875Z,98139.66
2022-09-12T14:01:43.206Z,98137.91
2022-09-12T14:04:44.220Z,98134.41
2022-09-12T14:07:23.806Z,98122.47
2022-09-12T14:09:59.904Z,98129.47
2022-09-12T14:12:30.231Z,98130.94
2022-09-12T14:14:57.832Z,98127.78
2022-09-12T14:17:31.618Z,98121.06
2022-09-12T14:20:08.852Z,98129.19
2022-09-12T14:22:36.502Z,98119.50
2022-09-12T14:25:03.945Z,98120.59
2022-09-12T14:27:45.642Z,98120.44
2022-09-12T14:30:34.836Z,98115.38
2022-09-12T14:33:10.904Z,98114.31
2022-09-12T14:35:47.721Z,98111.00
2022-09-12T14:38:17.479Z,98114.13
2022-09-12T14:40:52.983Z,98110.94
2022-09-12T14:43:33.702Z,98110.56
2022-09-12T14:46:17.051Z,98108.34
2022-09-12T14:48:51.141Z,98098.97
2022-09-12T14:51:51.470Z,98103.00
2022-09-12T14:54:40.164Z,98105.88
2022-09-12T14:57:45.144Z,98100.66
2022-09-12T15:00:12.036Z,98094.72
2022-09-12T15:02:40.549Z,98098.38
2022-09-12T15:05:07.337Z,98095.38
2022-09-12T15:07:42.283Z,98095.03
2022-09-12T15:10:18.620Z,98092.94
2022-09-12T15:12:45.493Z,98095.34
2022-09-12T15:15:21.073Z,98093.09
2022-09-12T15:17:47.965Z,98087.41
2022-09-12T15:20:14.931Z,98086.53
2022-09-12T15:22:42.376Z,98097.16
2022-09-12T15:25:12.982Z,98084.47
2022-09-12T15:27:42.718Z,98081.38
2022-09-12T15:30:12.107Z,98082.59
2022-09-12T15:32:42.438Z,98083.03
2022-09-12T15:35:22.551Z,98072.41
2022-09-12T15:37:50.196Z,98074.91
2022-09-12T15:40:17.503Z,98082.34
2022-09-12T15:42:44.597Z,98078.44
2022-09-12T15:45:27.126Z,98070.97
2022-09-12T15:47:55.000Z,98064.94
2022-09-12T15:50:22.366Z,98064.09
2022-09-12T15:52:49.451Z,98067.72
2022-09-12T15:55:23.767Z,98067.88
2022-09-12T15:57:51.042Z,98065.38
2022-09-12T16:00:19.163Z,98060.97
2022-09-12T16:02:50.137Z,98065.19
2022-09-12T16:05:24.316Z,98065.00
2022-09-12T16:07:53.985Z,98054.84
2022-09-12T16:10:25.743Z,98055.47
2022-09-12T16:12:52.901Z,98049.03
2022-09-12T16:15:23.412Z,98055.06
2022-09-12T16:17:50.839Z,98045.75
2022-09-12T16:20:19.286Z,98046.94
2022-09-12T16:22:46.560Z,98044.28
2022-09-12T16:25:13.921Z,98047.41
2022-09-12T16:27:41.326Z,98036.41
2022-09-12T16:30:09.522Z,98047.22
2022-09-12T16:32:36.989Z,98039.78
2022-09-12T16:35:04.348Z,98033.56
2022-09-12T16:37:32.213Z,98034.03
2022-09-12T16:39:59.255Z,98025.13
2022-09-12T16:42:26.248Z,98020.59
2022-09-12T16:44:53.044Z,98020.41
2022-09-12T16:47:19.910Z,98021.44
2022-09-12T16:49:46.813Z,98023.50
2022-09-12T16:52:16.478Z,98023.53
2022-09-12T16:54:46.464Z,98023.31
2022-09-12T16:57:13.400Z,98032.06
2022-09-12T16:59:40.313Z,98012.59
2022-09-12T17:02:12.175Z,98025.25
2022-09-12T17:04:39.603Z,98021.53
2022-09-12T17:07:06.933Z,98024.63
2022-09-12T17:09:34.154Z,98022.97
2022-09-12T17:12:01.207Z,98017.13
2022-09-12T17:14:28.159Z,98023.97
2022-09-12T17:16:55.086Z,98021.25
2022-09-12T17:19:29.887Z,98025.41
2022-09-12T17:21:57.804Z,98020.59
2022-09-12T17:24:24.970Z,98028.66
2022-09-12T17:26:53.390Z,98025.28
2022-09-12T17:29:20.738Z,98033.69
2022-09-12T17:31:48.117Z,98033.84
2022-09-12T17:34:16.225Z,98030.00
2022-09-12T17:36:44.486Z,98036.75
2022-09-12T17:39:13.547Z,98029.31
2022-09-12T17:41:45.736Z,98023.50
2022-09-12T17:44:15.080Z,98028.75
2022-09-12T17:46:43.098Z,98034.44
2022-09-12T17:49:16.277Z,98038.50
2022-09-12T17:51:43.893Z,98038.31
2022-09-12T17:54:15.650Z,98045.59
2022-09-12T17:56:44.282Z,98040.81
2022-09-12T17:59:17.293Z,98049.59
2022-09-12T18:02:02.684Z,98051.81
2022-09-12T18:04:30.034Z,98058.50
2022-09-12T18:06:57.739Z,98066.19
2022-09-12T18:09:28.192Z,98063.91
2022-09-12T18:11:55.526Z,98067.63
2022-09-12T18:14:23.619Z,98071.41
2022-09-12T18:16:50.730Z,98077.09
2022-09-12T18:19:18.388Z,98073.75
2022-09-12T18:21:45.373Z,98074.47
2022-09-12T18:24:12.766Z,98067.44
2022-09-12T18:26:40.034Z,98065.88
2022-09-12T18:29:07.683Z,98062.00
2022-09-12T18:31:34.735Z,98062.41
2022-09-12T18:34:02.551Z,98056.41
2022-09-12T18:36:30.615Z,98057.88
2022-09-12T18:38:59.173Z,98065.34
2022-09-12T18:41:28.745Z,98059.44
2022-09-12T18:43:59.649Z,98057.66
2022-09-12T18:46:29.168Z,98053.88
2022-09-12T18:48:59.799Z,98048.19
2022-09-12T18:51:34.843Z,98057.28
2022-09-12T18:54:08.723Z,98057.22
2022-09-12T18:56:38.232Z,98066.78
2022-09-12T18:59:06.824Z,98063.97
2022-09-12T19:01:36.547Z,98065.00
2022-09-12T19:04:04.946Z,98067.16
2022-09-12T19:06:36.889Z,98065.16
2022-09-12T19:09:07.966Z,98069.59
2022-09-12T19:11:38.333Z,98064.28
2022-09-12T19:14:06.759Z,98066.94
2022-09-12T19:16:34.664Z,98072.63
2022-09-12T19:19:02.570Z,98068.13
2022-09-12T19:21:32.056Z,98074.41
2022-09-12T19:24:03.491Z,98065.56
2022-09-12T19:26:30.525Z,98067.50
2022-09-12T19:28:58.477Z,98068.69
2022-09-12T19:31:26.067Z,98073.63
2022-09-12T19:33:53.099Z,98063.44
2022-09-12T19:36:43.974Z,98058.59
2022-09-12T19:39:09.946Z,98055.66
2022-09-12T19:41:37.025Z,98053.97
2022-09-12T19:44:05.141Z,98057.13
2022-09-12T19:46:32.209Z,98048.28
2022-09-12T19:48:59.312Z,98045.16
2022-09-12T19:51:26.414Z,98054.88
2022-09-12T19:53:53.918Z,98058.16
2022-09-12T19:56:21.093Z,98056.47
2022-09-12T19:58:55.296Z,98050.78
2022-09-12T20:01:29.911Z,98045.69
2022-09-12T20:03:58.368Z,98051.34
2022-09-12T20:06:26.215Z,98057.75
2022-09-12T20:08:53.504Z,98055.13
2022-09-12T20:11:23.612Z,98052.97
2022-09-12T20:13:51.602Z,98051.66
2022-09-12T20:16:22.131Z,98048.19
2022-09-12T20:19:08.335Z,98051.88
2022-09-12T20:21:36.694Z,98049.34
2022-09-12T20:24:10.109Z,98046.69
2022-09-12T20:26:37.789Z,98056.72
2022-09-12T20:29:06.809Z,98049.22
2022-09-12T20:31:35.537Z,98047.72
2022-09-12T20:34:03.163Z,98040.53
2022-09-12T20:36:30.442Z,98039.91
2022-09-12T20:39:01.029Z,98045.22
2022-09-12T20:41:31.207Z,98047.38
2022-09-12T20:43:58.322Z,98040.69
2022-09-12T20:46:26.913Z,98042.19
2022-09-12T20:48:54.799Z,98045.72
2022-09-12T20:51:22.766Z,98042.56
2022-09-12T20:53:54.552Z,98041.19
2022-09-12T20:56:22.718Z,98035.38
2022-09-12T20:58:50.065Z,98034.88
2022-09-12T21:01:17.270Z,98029.22
2022-09-12T21:03:45.047Z,98024.34
2022-09-12T21:06:16.939Z,98021.88
2022-09-12T21:08:45.377Z,98024.69
2022-09-12T21:11:12.542Z,98020.53
2022-09-12T21:13:39.693Z,98038.19
2022-09-12T21:16:10.062Z,98029.72
2022-09-12T21:18:37.900Z,98022.06
2022-09-12T21:21:05.596Z,98014.19
2022-09-12T21:23:33.649Z,98034.56
2022-09-12T21:26:01.767Z,98028.22
2022-09-12T21:28:29.129Z,98032.22
2022-09-12T21:30:56.517Z,98041.38
2022-09-12T21:33:24.388Z,98037.69
2022-09-12T21:35:51.272Z,98030.72
2022-09-12T21:38:19.679Z,98027.16
2022-09-12T21:40:47.601Z,98043.22
2022-09-12T21:43:14.938Z,98035.56
2022-09-12T21:45:42.216Z,98034.63
2022-09-12T21:48:09.451Z,98034.44
2022-09-12T21:50:36.320Z,98023.09
2022-09-12T21:53:03.552Z,98036.22
2022-09-12T21:55:31.127Z,98034.09
2022-09-12T21:57:58.060Z,98030.66
2022-09-12T22:00:25.114Z,98031.19
2022-09-12T22:02:53.162Z,98028.31
2022-09-12T22:05:21.238Z,98033.38
2022-09-12T22:07:48.165Z,98024.53
2022-09-12T22:10:15.207Z,98035.13
2022-09-12T22:12:46.131Z,98040.09
2022-09-12T22:15:38.767Z,98025.22
2022-09-12T22:18:02.008Z,98019.19
2022-09-12T22:20:28.903Z,98024.78
2022-09-12T22:23:14.115Z,98017.09
2022-09-12T22:25:41.526Z,98009.88
2022-09-12T22:28:08.481Z,98005.91
2022-09-12T22:30:35.505Z,97998.41
2022-09-12T22:33:02.416Z,97996.56
2022-09-12T22:35:29.382Z,97983.91
2022-09-12T22:37:56.252Z,97991.00
2022-09-12T22:40:23.340Z,97977.31
2022-09-12T22:42:52.909Z,97974.50
2022-09-12T22:45:19.902Z,97974.72
2022-09-12T22:47:47.244Z,97973.06
2022-09-12T22:50:14.461Z,97972.97
2022-09-12T22:52:41.598Z,97967.28
2022-09-12T22:55:09.852Z,97963.31
2022-09-12T22:57:37.422Z,97963.09
2022-09-12T23:00:10.609Z,97962.84
2022-09-12T23:02:38.097Z,97960.78
2022-09-12T23:05:06.043Z,97960.72
2022-09-12T23:07:33.536Z,97974.75
2022-09-12T23:10:01.002Z,97983.34
2022-09-12T23:12:27.954Z,97982.31
2022-09-12T23:14:54.884Z,97984.13
2022-09-12T23:17:21.749Z,97990.59
2022-09-12T23:19:48.656Z,97986.91
2022-09-12T23:22:15.600Z,97993.81
2022-09-12T23:24:42.474Z,97983.88
2022-09-12T23:27:09.509Z,97982.47
2022-09-12T23:29:36.469Z,97980.28
2022-09-12T23:32:06.752Z,97988.13
2022-09-12T23:34:33.911Z,97993.50
2022-09-12T23:37:00.777Z,97994.09
2022-09-12T23:39:27.937Z,98003.91
2022-09-12T23:41:55.476Z,97997.00
2022-09-12T23:44:22.352Z,97997.72
2022-09-12T23:46:49.228Z,98005.38
2022-09-12T23:49:16.123Z,98001.47
2022-09-12T23:51:42.977Z,97993.97
2022-09-12T23:54:09.859Z,97990.66
2022-09-12T23:56:37.110Z,97990.06
2022-09-12T23:59:04.918Z,97996.22
